Klaus Kuhn

Olheiro - Mainz 05
4 Abr 2027
Domingo
Processo

Personalidade

Adaptabilidade (16) Ambição (5) Controvérsia (4) Lealdade (3) Pressão (1) Profissionalismo (9) Espírito Esportivo (15) Temperamento (14)

Perfil

Estilo de Treinamento Democrático
Licença Nacional B
Determinação 13
Gestão de Pessoas 11
Motivação 8
Disciplina 7
Satisfação no Trabalho
50%
Fadiga
0%
Função Olheiro
Salário 80.4K p/s
Contrato 14.03.2028

Desempenho

Comportamento Normal
Eficácia do Treinamento
26%
Desenvolvimento do Jogador
35%
Prevenção de Lesões
55%
Implementação Tática
30%

Eventos Recentes

Avaliou um jogador agora
Participou de uma reunião de recrutamento agora
Avaliou um jogador agora
Participou de uma reunião de recrutamento 7d atrás
Avaliou um jogador 7d atrás
Avaliou um jogador 7d atrás
Avaliou um jogador 7d atrás
Avaliou um jogador 7d atrás

Monitorando agora

104
Jogador Clube Status Habilidade Confiança Observado Última observação Último voto
Andrea Giorgini Südtirol Ativo 127 / 136 40% 1 02.04.2027 -
Nacer Tielemans Mouscron Ativo 133 / 144 40% 1 02.04.2027 -
Frans Krätzig Red Bull Salzburg Ativo 126 / 141 40% 1 02.04.2027 -
Rocco Vata Watford Ativo 124 / 132 40% 3 31.03.2027 -
Rafiu Durosinmi Racing Genk Ativo 135 / 133 40% 1 31.03.2027 -
José Bica Leixões Ativo 103 / 103 40% 1 31.03.2027 -
Derry Scherhant SC Freiburg Ativo 122 / 123 40% 4 30.03.2027 -
Abdoulie Ceesay St. Pauli Ativo 109 / 121 40% 1 30.03.2027 -
Josh Coburn Millwall Ativo 121 / 116 40% 1 30.03.2027 -
Marezi Portsmouth Ativo 126 / 131 40% 4 29.03.2027 -
Myron van Brederode KV Mechelen Ativo 124 / 119 40% 1 29.03.2027 -
David Romero Parma Ativo 127 / 136 40% 1 29.03.2027 -
Festy Ebosele Basaksehir Ativo 133 / 143 40% 4 28.03.2027 -
Beni Mukendi Vitoria Guimaraes Ativo 131 / 131 40% 3 28.03.2027 -
Chuki Werder Bremen Ativo 124 / 112 40% 2 28.03.2027 -
Cristian Shpendi Cesena Ativo 133 / 140 40% 1 28.03.2027 -
Jonathan Rowe Bologna Ativo 136 / 141 40% 1 28.03.2027 -
Stije Resink AZ Ativo 128 / 127 40% 1 28.03.2027 -
Herba Guirassy Monaco Ativo 127 / 122 40% 1 24.03.2027 -
Markus Jensen Nacional Ativo 101 / 103 40% 1 24.03.2027 -
Omar Campos Cruz Azul Ativo 117 / 122 40% 4 23.03.2027 -
Mamadou Coulibaly Al Jazira Ativo 132 / 126 40% 1 23.03.2027 -
Andrew Omobamidele RC Strasbourg Ativo 129 / 135 40% 2 22.03.2027 -
Metinho Basel Ativo 130 / 131 40% 1 22.03.2027 -
Victor Parada Spartak Moscow Ativo 118 / 104 40% 1 22.03.2027 -
Chupete Málaga Ativo 128 / 140 40% 3 21.03.2027 -
Freddie Draper Lincoln City Ativo 106 / 121 40% 1 21.03.2027 -
Bright Arrey-Mbi Braga Ativo 138 / 128 40% 1 21.03.2027 -
Toby Vanaken KV Oostende Ativo 123 / 131 40% 1 21.03.2027 -
García Pascual Cádiz Ativo 125 / 112 40% 5 19.03.2027 -
Suleman Sani RB Leipzig Ativo 120 / 127 40% 2 19.03.2027 -
Siyabonga Mokoena SuperSport United Ativo 100 / 85 40% 1 19.03.2027 -
Sabil Hansen Randers Ativo 110 / 110 40% 1 19.03.2027 -
Matteo Dams Club Brugge Ativo 127 / 139 40% 1 18.03.2027 -
Freddie Potts Club Brugge Ativo 137 / 126 40% 2 17.03.2027 -
Axel Tape Bayer Leverkusen Ativo 118 / 140 40% 1 17.03.2027 -
Ilay Camara Anderlecht Ativo 127 / 134 40% 1 17.03.2027 -
Chris Rigg Sunderland Ativo 128 / 143 40% 1 15.03.2027 -
Mattia Rutigliano Pro Vercelli Ativo 103 / 107 40% 1 15.03.2027 -
Luis Fernando Santa Clara Ativo 106 / 104 40% 1 15.03.2027 -
Taichi Fukui Arouca Ativo 127 / 128 40% 1 15.03.2027 -
Gustavo Puerta Racing Santander Ativo 141 / 141 40% 1 15.03.2027 -
Pedro Henrique Shakhtar Ativo 142 / 122 40% 2 14.03.2027 -
Arsène Kouassi FC Lorient Ativo 124 / 139 40% 1 12.03.2027 -
Mattia Zanotti Lugano Ativo 125 / 128 40% 2 11.03.2027 -
Eduardo Fernandes Benfica Ativo 105 / 113 40% 2 10.03.2027 -
Elijah Dijkstra Feyenoord Ativo 124 / 116 40% 2 10.03.2027 -
Arkaitz Mariezkurrena Real Sociedad Ativo 116 / 132 40% 1 10.03.2027 -
André Miranda Porto Ativo 104 / 95 40% 1 09.03.2027 -
Alexander Røssing-Lelesiit Hamburger SV Ativo 106 / 111 40% 1 09.03.2027 -
Matheus Gonçalves Al-Ahli Ativo 122 / 120 40% 1 09.03.2027 -
Felipe Augusto Zenit Ativo 125 / 116 40% 2 07.03.2027 -
Ekain Orobengoa Real Sociedad Ativo 101 / 110 40% 1 06.03.2027 -
Olívio Tomé Benfica Ativo 106 / 119 40% 1 05.03.2027 -
Richard Koné Queens Park Rangers Ativo 122 / 120 40% 2 03.03.2027 -
Maurits Kjærgaard Red Bull Salzburg Ativo 126 / 120 40% 1 03.03.2027 -
Carlos Martín Atlético Madrid Ativo 131 / 130 40% 1 02.03.2027 -
Thomas Kastanaras FC Augsburg Ativo 103 / 116 40% 1 02.03.2027 -
Pedro Zenit Ativo 134 / 120 40% 1 01.03.2027 -
Luís Guilherme Sporting CP Ativo 122 / 126 40% 1 01.03.2027 -
Eliesse Ben Seghir Bayer Leverkusen Perdido 137 / 125 76% 1 18.01.2027 Aprovar
Michy Fellaini KV Oostende Ativo 134 / 137 40% 2 28.12.2026 -
Cesar Corona Veracruz Ativo 130 / 134 40% 4 24.12.2026 -
Terem Moffi Hamburger SV Ativo 125 / 138 40% 2 24.12.2026 -
Mateo Fernández Angusht Ativo 83 / 68 40% 1 24.12.2026 -
Exequiel Zeballos Boca Juniors Ativo 138 / 136 40% 2 23.12.2026 -
Brayan León Mamelodi Sundowns Ativo 109 / 120 40% 1 21.12.2026 -
Fiete Arp OB Ativo 127 / 130 40% 1 21.12.2026 -
Luca Orellano Monterrey Perdido 138 / 133 40% 2 16.12.2026 -
Philippe Keny Zurich Ativo 120 / 131 40% 3 16.12.2026 -
Josias Lukembila Sion Ativo 121 / 113 40% 4 14.12.2026 -
Matteo di Giusto Luzern Ativo 120 / 118 40% 3 12.12.2026 -
Marcos Paulo Juventude Ativo 122 / 115 40% 1 12.12.2026 -
Ousmane Camara Castellón Ativo 124 / 131 40% 1 12.12.2026 -
Adriano Bertaccini Anderlecht Ativo 122 / 127 40% 3 28.11.2026 -
Luciano Gondou CSKA Moscow Ativo 135 / 145 40% 2 25.11.2026 -
Kaio Jorge Cruzeiro Ativo 138 / 129 40% 1 25.11.2026 -
Álex Forés Burgos Ativo 132 / 117 40% 1 23.11.2026 -
Juan-José Perea Zurich Ativo 123 / 118 40% 1 23.11.2026 -
Tadeo Allende Inter Miami CF Ativo 121 / 135 40% 1 19.11.2026 -
Maurits Kjærgaard Red Bull Salzburg Perdido 128 / 144 40% 2 12.11.2026 -
Ozziel Herrera Tigres Ativo 133 / 136 40% 1 12.11.2026 -
Andrin Hunziker St. Gallen Ativo 105 / 112 40% 3 08.11.2026 -
Ignacio Russo Tigre Ativo 123 / 117 40% 1 30.10.2026 -
Yoshan Valois Lanús Ativo 113 / 118 40% 1 30.10.2026 -
Ilyas Chouaref Sion Ativo 119 / 131 40% 1 28.10.2026 -
Louis Munteanu DC United Ativo 117 / 140 40% 3 23.10.2026 -
Alexander Díaz Deportivo Riestra Ativo 113 / 131 40% 1 23.10.2026 -
Yorbe Vertessen Red Bull Salzburg Ativo 129 / 136 40% 1 23.10.2026 -
Danylo Sikan Anderlecht Ativo 123 / 136 40% 1 19.10.2026 -
Tomás Chancalay Minnesota United FC Ativo 134 / 126 40% 1 19.10.2026 -
Dejan Djokic Vaduz Ativo 97 / 87 40% 1 19.10.2026 -
Juan Manuel Boselli Krasnodar Ativo 120 / 111 40% 1 15.10.2026 -
Sinan Karweina Luzern Ativo 114 / 102 40% 1 15.10.2026 -
Dylan Gorosito Boca Juniors Ativo 104 / 125 40% 1 08.09.2026 -
Alejo Gelsomino Gimnasia La Plata Ativo 103 / 114 40% 1 08.09.2026 -
Santino Piccinetti Huracán Ativo 99 / 92 40% 1 08.09.2026 -
Yarek Gąsiorowski PSV Ativo 130 / 148 40% 1 07.09.2026 -
David Santos Daiber Bayern Munich Ativo 104 / 112 40% 1 07.09.2026 -
Caleb Yirenkyi Coventry City Ativo 132 / 125 40% 1 16.08.2026 -
Eliás Montiel Pachuca Ativo 119 / 146 40% 1 16.08.2026 -
Ignacio Perruzzi San Lorenzo Ativo 113 / 129 40% 1 03.08.2026 -
Elias Baum Eintracht Frankfurt Ativo 117 / 140 40% 1 03.08.2026 -
John Mellberg Red Bull Salzburg Ativo 114 / 122 40% 1 03.08.2026 -